Time;durP1;ratioP1;P1;durP2;ratioP2;P2;SDS_P1;SDS_P2;PMS_P1;PMS_P2;Temp;Humidity;BMP_temperature;BMP_pressure;BME280_temperature;BME280_humidity;BME280_pressure;Samples;Min_cycle;Max_cycle;Signal;HPM_P1;HPM_P2
2022/01/16 00:04:11;;;;;;;25.42;13.98;;;;;;;0.67;59.06;100905.06;4387633;32;35853;-54
2022/01/16 00:06:41;;;;;;;27.35;12.07;;;;;;;0.77;58.80;100902.41;4388964;32;34591;-54
2022/01/16 00:09:10;;;;;;;27.08;14.93;;;;;;;0.73;58.58;100890.28;4389022;32;33878;-53
2022/01/16 00:11:37;;;;;;;30.10;16.02;;;;;;;0.72;58.25;100885.13;4388907;32;34068;-53
2022/01/16 00:14:05;;;;;;;27.27;14.50;;;;;;;0.64;58.69;100886.88;4387511;32;34781;-54
2022/01/16 00:16:33;;;;;;;26.25;13.98;;;;;;;0.69;58.77;100872.13;4387447;32;34323;-53
2022/01/16 00:19:01;;;;;;;28.67;13.25;;;;;;;0.51;59.17;100867.84;4389035;32;34965;-54
2022/01/16 00:21:31;;;;;;;;;;;;;;;0.73;58.73;100899.84;4389580;32;33027;-54
2022/01/16 00:23:59;;;;;;;26.60;12.82;;;;;;;0.83;58.02;100893.72;4387697;32;33892;-54
2022/01/16 00:26:26;;;;;;;27.48;12.20;;;;;;;0.66;58.40;100898.13;4388244;32;34561;-54
2022/01/16 00:28:54;;;;;;;25.42;14.23;;;;;;;0.63;58.63;100929.34;4388949;32;34160;-53
2022/01/16 00:31:23;;;;;;;30.30;14.07;;;;;;;0.59;58.59;100925.88;4384103;32;34320;-53
2022/01/16 00:33:51;;;;;;;34.15;15.38;;;;;;;0.57;58.02;100886.88;4374321;32;34909;-53
2022/01/16 00:36:19;;;;;;;;;;;;;;;0.49;58.24;100890.41;4374045;32;34178;-54
2022/01/16 00:38:48;;;;;;;29.33;15.60;;;;;;;0.54;58.49;100899.91;4374051;32;34169;-53
2022/01/16 00:41:18;;;;;;;32.67;15.50;;;;;;;0.31;58.77;100897.34;4373877;32;34356;-54
2022/01/16 00:43:46;;;;;;;32.75;15.82;;;;;;;0.38;58.66;100893.00;4374327;32;34636;-54
2022/01/16 00:46:14;;;;;;;28.00;15.95;;;;;;;0.44;58.62;100892.97;4385815;32;35099;-54
2022/01/16 00:48:42;;;;;;;28.23;15.07;;;;;;;0.44;58.29;100859.19;4388718;32;34990;-54
2022/01/16 00:51:10;;;;;;;31.62;14.00;;;;;;;0.22;59.12;100878.31;4388726;32;34404;-54
2022/01/16 00:53:43;;;;;;;31.62;17.77;;;;;;;0.30;59.32;100871.37;4388671;32;33450;-54
2022/01/16 00:56:12;;;;;;;31.55;15.80;;;;;;;0.39;58.61;100890.41;4375281;32;34040;-53
2022/01/16 00:58:40;;;;;;;28.73;14.18;;;;;;;0.35;58.18;100893.00;4373499;32;34368;-54
2022/01/16 01:01:08;;;;;;;31.15;16.52;;;;;;;0.37;57.82;100873.09;4373641;32;34059;-54
2022/01/16 01:03:37;;;;;;;30.30;15.80;;;;;;;0.26;57.60;100867.91;4373423;32;34807;-54
2022/01/16 01:06:05;;;;;;;28.90;15.50;;;;;;;0.10;58.45;100885.25;4374963;32;34030;-53
2022/01/16 01:08:32;;;;;;;;;;;;;;;0.09;59.00;100874.88;4373982;32;33975;-54
2022/01/16 01:11:04;;;;;;;24.87;11.27;;;;;;;0.17;58.68;100886.09;4373852;32;34133;-53
2022/01/16 01:13:44;;;;;;;26.58;11.85;;;;;;;0.18;58.41;100909.50;4373589;32;32864;-54
2022/01/16 01:16:15;;;;;;;25.80;13.30;;;;;;;0.30;57.89;100910.34;4374148;32;34933;-54
2022/01/16 01:18:44;;;;;;;25.70;13.38;;;;;;;0.12;58.42;100906.91;4373484;32;33927;-54
2022/01/16 01:21:26;;;;;;;27.23;12.60;;;;;;;0.23;58.09;100796.91;4373431;32;33766;-54
2022/01/16 01:23:55;;;;;;;22.85;11.48;;;;;;;0.24;58.12;100799.50;4373478;32;34028;-54
2022/01/16 01:26:33;;;;;;;27.73;13.65;;;;;;;-0.06;58.73;100818.62;4374128;32;33955;-54
2022/01/16 01:29:00;;;;;;;24.33;12.70;;;;;;;-0.09;58.55;100805.66;4373382;32;34335;-54
2022/01/16 01:31:29;;;;;;;22.35;11.05;;;;;;;-0.07;58.52;100811.72;4373418;32;33416;-54
2022/01/16 01:33:57;;;;;;;24.10;11.98;;;;;;;-0.15;58.65;100847.22;4373295;32;35111;-53
2022/01/16 01:36:25;;;;;;;27.13;12.98;;;;;;;-0.23;58.50;100845.47;4373771;32;34249;-53
2022/01/16 01:38:52;;;;;;;25.80;12.25;;;;;;;-0.06;58.15;100874.03;4373438;32;33639;-54
2022/01/16 01:41:20;;;;;;;24.63;12.73;;;;;;;-0.17;58.50;100887.87;4373453;32;33186;-54
2022/01/16 01:52:05;;;;;;;24.15;11.55;;;;;;;-0.31;59.38;100893.03;4373433;32;32850;-54
2022/01/16 01:54:33;;;;;;;24.33;12.68;;;;;;;-0.19;59.36;100859.31;4359757;32;34484;-54
2022/01/16 01:57:01;;;;;;;27.85;12.00;;;;;;;-0.30;59.64;100869.69;4373935;32;35127;-53
2022/01/16 01:59:28;;;;;;;25.48;12.13;;;;;;;-0.24;59.46;100882.66;4372982;32;34055;-54
2022/01/16 02:01:56;;;;;;;;;;;;;;;-0.28;59.42;100869.69;4373846;32;33076;-54
2022/01/16 02:04:24;;;;;;;24.65;11.32;;;;;;;-0.18;59.31;100862.78;4373986;32;34479;-53
2022/01/16 02:06:52;;;;;;;23.77;11.50;;;;;;;-0.26;58.97;100875.75;4387218;32;36675;-54
2022/01/16 02:09:20;;;;;;;25.05;11.63;;;;;;;-0.50;59.27;100861.06;4374531;32;34777;-54
2022/01/16 02:11:48;;;;;;;20.40;10.88;;;;;;;-0.53;59.44;100869.69;4374543;32;33988;-54
2022/01/16 02:31:22;;;;;;;25.17;11.93;;;;;;;-0.63;58.83;100886.09;4388275;32;33540;-54
2022/01/16 02:36:31;;;;;;;25.37;13.02;;;;;;;-0.70;58.93;100912.88;4373699;32;33864;-54
2022/01/16 02:39:05;;;;;;;20.95;10.35;;;;;;;-0.68;58.87;100891.28;4384398;32;34933;-53
2022/01/16 02:41:33;;;;;;;22.80;10.68;;;;;;;-0.74;58.87;100896.44;4387929;32;34785;-53
2022/01/16 02:44:10;;;;;;;;;;;;;;;-0.65;58.91;100904.25;4388134;32;34445;-55
2022/01/16 02:46:39;;;;;;;19.90;10.25;;;;;;;-0.70;58.99;100898.22;4382253;32;34650;-54
2022/01/16 02:49:22;;;;;;;23.73;11.15;;;;;;;-0.90;59.47;100892.94;4386930;32;34830;-54
2022/01/16 02:51:52;;;;;;;24.50;11.38;;;;;;;-0.96;59.80;100907.63;4387612;32;33686;-54
2022/01/16 02:54:20;;;;;;;22.58;10.88;;;;;;;-0.91;59.70;100892.94;4387695;32;34362;-54
2022/01/16 02:56:48;;;;;;;;;;;;;;;-0.96;59.69;100886.88;4385804;32;34898;-54
2022/01/16 02:59:17;;;;;;;24.10;11.05;;;;;;;-0.79;59.16;100890.41;4373159;32;33948;-53
2022/01/16 03:01:45;;;;;;;23.90;11.12;;;;;;;-0.68;58.69;100873.12;4372470;32;33824;-54
2022/01/16 03:04:13;;;;;;;24.33;11.65;;;;;;;-0.78;58.66;100876.56;4372244;32;33337;-55
2022/01/16 03:06:40;;;;;;;22.83;11.77;;;;;;;-0.94;59.50;100879.97;4372896;32;33654;-54
2022/01/16 03:09:08;;;;;;;;;;;;;;;-0.91;59.46;100882.56;4372467;32;35408;-54
2022/01/16 03:11:45;;;;;;;31.48;13.35;;;;;;;-1.00;59.58;100886.88;4372533;32;35013;-54
2022/01/16 03:14:15;;;;;;;62.42;24.87;;;;;;;-1.05;59.87;100878.22;4372320;32;33054;-54
2022/01/16 03:16:47;;;;;;;64.97;25.62;;;;;;;-1.06;59.88;100881.66;4371979;32;34377;-54
2022/01/16 03:22:05;;;;;;;64.30;26.95;;;;;;;-1.02;59.76;100883.41;4372785;32;33771;-54
2022/01/16 03:24:41;;;;;;;71.85;30.25;;;;;;;-0.99;59.88;100872.16;4372297;32;33410;-53
2022/01/16 03:27:16;;;;;;;61.70;26.02;;;;;;;-0.95;59.64;100868.75;4372330;32;33357;-53
2022/01/16 03:29:49;;;;;;;39.85;18.20;;;;;;;-0.91;58.93;100872.19;4358516;32;34161;-54
2022/01/16 03:32:18;;;;;;;29.33;12.52;;;;;;;-0.93;58.59;100871.31;4373507;32;34431;-53
2022/01/16 03:34:46;;;;;;;38.72;17.30;;;;;;;-1.03;58.75;100867.84;4372634;32;33086;-54
2022/01/16 03:37:14;;;;;;;34.53;16.60;;;;;;;-1.08;59.05;100862.66;4371954;32;34397;-54
2022/01/16 03:39:41;;;;;;;30.30;13.52;;;;;;;-1.11;59.55;100869.56;4371943;32;35027;-54
2022/01/16 03:42:12;;;;;;;;;;;;;;;-1.01;59.04;100868.72;4372893;32;34724;-53
2022/01/16 03:44:39;;;;;;;28.55;11.98;;;;;;;-0.95;58.68;100867.87;4372867;32;33504;-56
2022/01/16 03:47:07;;;;;;;29.08;13.62;;;;;;;-1.20;59.11;100866.06;4371730;32;34536;-56
2022/01/16 03:49:35;;;;;;;27.92;12.37;;;;;;;-1.20;59.13;100868.66;4371746;32;35604;-57
2022/01/16 03:52:02;;;;;;;27.35;11.85;;;;;;;-1.24;59.42;100859.16;4371935;32;34498;-56
2022/01/16 03:54:34;;;;;;;27.13;12.25;;;;;;;-1.31;59.28;100864.31;4372677;32;33211;-56
2022/01/16 03:57:02;;;;;;;27.67;12.98;;;;;;;-1.25;58.86;100853.94;4371909;32;34014;-56
2022/01/16 03:59:29;;;;;;;26.73;12.07;;;;;;;-1.24;58.63;100866.03;4371865;32;33969;-56
2022/01/16 04:01:57;;;;;;;28.27;14.02;;;;;;;-1.42;59.25;100857.31;4373113;32;34126;-56
2022/01/16 04:04:24;;;;;;;;;;;;;;;-1.24;58.57;100848.78;4387154;32;33192;-56
2022/01/16 04:06:52;;;;;;;26.52;12.43;;;;;;;-1.16;58.36;100847.91;4388983;32;34279;-56
2022/01/16 04:09:20;;;;;;;26.87;11.32;;;;;;;-1.18;58.30;100855.72;4388927;32;34105;-56
2022/01/16 04:11:52;;;;;;;25.65;13.13;;;;;;;-1.28;58.17;100848.75;4389195;32;34380;-57
2022/01/16 04:15:31;;;;;;;23.73;11.32;;;;;;;-1.31;57.90;100847.03;4389052;32;33846;-56
2022/01/16 04:17:12;;;;;;;27.52;12.48;;;;;;;-1.29;58.20;100854.81;4387498;32;34431;-56
2022/01/16 04:19:39;;;;;;;28.02;12.70;;;;;;;-1.47;59.18;100855.59;4374695;32;34154;-56
2022/01/16 04:22:07;;;;;;;27.65;12.82;;;;;;;-1.48;59.30;100857.31;4374162;32;34129;-56
2022/01/16 04:24:35;;;;;;;34.13;18.00;;;;;;;-1.49;59.50;100853.00;4382137;32;33532;-56
2022/01/16 04:27:03;;;;;;;26.98;13.90;;;;;;;-1.61;59.48;100850.31;4389143;32;33905;-56
2022/01/16 04:29:31;;;;;;;24.77;12.15;;;;;;;-1.40;58.69;100847.88;4387589;32;34440;-56
2022/01/16 04:31:58;;;;;;;26.37;12.77;;;;;;;-1.45;58.68;100854.75;4388869;32;34081;-56
2022/01/16 04:34:26;;;;;;;25.83;13.40;;;;;;;-1.67;59.33;100861.50;4388787;32;33220;-56
2022/01/16 04:36:53;;;;;;;29.12;14.68;;;;;;;-1.68;59.26;100864.13;4388742;32;33566;-56
2022/01/16 04:39:22;;;;;;;32.40;15.82;;;;;;;-1.67;59.15;100858.91;4387296;32;34446;-56
2022/01/16 04:44:35;;;;;;;29.60;14.23;;;;;;;-1.74;59.53;100864.94;4388797;32;34223;-56
2022/01/16 04:47:03;;;;;;;;;;;;;;;-1.77;59.88;100858.88;4389419;32;33056;-56
2022/01/16 04:49:30;;;;;;;32.08;15.55;;;;;;;-1.75;59.56;100846.81;4387629;32;34596;-56
2022/01/16 04:51:58;;;;;;;29.87;14.73;;;;;;;-1.67;58.87;100850.28;4388608;32;34168;-56
2022/01/16 04:54:25;;;;;;;30.23;15.07;;;;;;;-1.70;59.17;100845.12;4388914;32;33602;-56
2022/01/16 04:56:53;;;;;;;30.15;14.68;;;;;;;-1.80;59.30;100845.06;4388949;32;33755;-56
2022/01/16 04:59:20;;;;;;;25.60;12.98;;;;;;;-1.72;59.12;100842.50;4386058;32;34180;-57
2022/01/16 05:01:48;;;;;;;25.33;12.32;;;;;;;-1.67;58.70;100843.37;4374514;32;34161;-56
2022/01/16 05:04:15;;;;;;;23.80;12.20;;;;;;;-1.85;59.20;100845.88;4373664;32;33474;-56
2022/01/16 05:06:43;;;;;;;23.95;11.70;;;;;;;-1.67;58.73;100845.12;4373523;32;33868;-56
2022/01/16 05:09:11;;;;;;;29.05;12.63;;;;;;;-1.80;58.95;100841.63;4374145;32;34243;-56
2022/01/16 05:11:38;;;;;;;36.72;14.82;;;;;;;-1.61;58.29;100845.16;4372941;32;34078;-56
2022/01/16 05:16:41;;;;;;;46.17;17.92;;;;;;;-1.89;59.21;100839.81;4373703;32;33716;-56
2022/01/16 05:19:11;;;;;;;60.42;22.48;;;;;;;-1.68;58.81;100836.50;4375699;32;34601;-56
2022/01/16 05:21:40;;;;;;;54.10;21.55;;;;;;;-1.84;59.29;100845.00;4388507;32;33699;-56
2022/01/16 05:24:10;;;;;;;44.33;18.25;;;;;;;-1.86;59.53;100838.97;4387076;32;33782;-57
2022/01/16 05:26:40;;;;;;;40.15;17.20;;;;;;;-1.88;59.32;100835.50;4388417;32;33471;-56
2022/01/16 05:29:09;;;;;;;36.78;15.80;;;;;;;-1.89;59.13;100829.47;4388400;32;35230;-56
2022/01/16 05:31:36;;;;;;;34.25;14.70;;;;;;;-1.84;59.27;100838.13;4379371;32;34258;-56
2022/01/16 05:34:04;;;;;;;33.80;13.60;;;;;;;-1.75;58.76;100851.97;4373612;32;34244;-56
2022/01/16 05:36:31;;;;;;;30.60;13.68;;;;;;;-1.90;59.01;100852.75;4374706;32;33936;-55
2022/01/16 05:38:59;;;;;;;26.45;12.40;;;;;;;-1.98;59.22;100852.69;4373233;32;34171;-56
2022/01/16 05:41:26;;;;;;;28.55;12.70;;;;;;;-2.37;60.33;100849.81;4373224;32;35197;-56
2022/01/16 05:43:54;;;;;;;28.15;12.20;;;;;;;-2.22;59.68;100850.81;4373385;32;33972;-56
2022/01/16 05:46:21;;;;;;;33.60;15.25;;;;;;;-2.14;59.84;100850.87;4374361;32;33106;-56
2022/01/16 05:48:50;;;;;;;;;;;;;;;-1.99;59.62;100869.09;4373659;32;35006;-55
2022/01/16 05:51:18;;;;;;;27.03;13.33;;;;;;;-1.95;59.20;100864.81;4373447;32;34831;-56
2022/01/16 05:53:45;;;;;;;30.23;15.25;;;;;;;-1.89;58.84;100870.03;4373382;32;34124;-56
2022/01/16 05:56:13;;;;;;;32.42;15.75;;;;;;;-1.96;59.35;100863.94;4384262;32;34688;-56
2022/01/16 05:58:40;;;;;;;33.63;16.35;;;;;;;-1.76;58.81;100866.66;4388220;32;34166;-56
2022/01/16 06:01:08;;;;;;;30.15;15.57;;;;;;;-1.84;58.93;100873.50;4388080;32;34007;-56
2022/01/16 06:03:36;;;;;;;35.40;17.42;;;;;;;-1.96;59.22;100874.28;4378495;32;33135;-56
2022/01/16 06:06:03;;;;;;;34.15;17.12;;;;;;;-2.09;59.72;100878.53;4383563;32;34401;-56
2022/01/16 06:08:31;;;;;;;37.85;17.90;;;;;;;-1.90;58.88;100873.47;4388125;32;33953;-56
2022/01/16 06:10:59;;;;;;;39.05;18.60;;;;;;;-1.99;59.57;100882.03;4395859;32;34938;-56
2022/01/16 06:13:26;;;;;;;35.30;18.90;;;;;;;-2.01;59.51;100884.63;4389321;32;33685;-56
2022/01/16 06:15:53;;;;;;;40.17;21.42;;;;;;;-2.08;59.48;100880.25;4396756;32;33650;-57
2022/01/16 06:18:22;;;;;;;44.63;23.10;;;;;;;-2.12;59.54;100877.63;4384574;32;34572;-56
2022/01/16 06:20:50;;;;;;;45.33;23.67;;;;;;;-2.10;59.81;100883.69;4374486;32;33017;-56
2022/01/16 06:23:17;;;;;;;;;;;;;;;-2.21;60.21;100881.88;4373909;32;33982;-56
2022/01/16 06:25:44;;;;;;;44.50;21.60;;;;;;;-1.96;59.42;100889.81;4373739;32;33887;-56
2022/01/16 06:28:12;;;;;;;45.65;22.62;;;;;;;-2.06;59.57;100896.62;4379179;32;33973;-56
2022/01/16 06:30:39;;;;;;;46.92;23.12;;;;;;;-2.06;59.54;100888.03;4384011;32;34390;-56
2022/01/16 06:33:09;;;;;;;;;;;;;;;-1.97;59.42;100888.09;4378372;32;33932;-55
2022/01/16 06:35:36;;;;;;;46.53;24.63;;;;;;;-2.09;59.81;100888.00;4374168;32;33808;-56
2022/01/16 06:38:04;;;;;;;47.42;24.00;;;;;;;-2.16;59.82;100888.81;4373664;32;34070;-56
2022/01/16 06:40:32;;;;;;;48.33;23.58;;;;;;;-2.01;59.55;100894.97;4373001;32;34815;-56
2022/01/16 06:42:59;;;;;;;45.25;23.33;;;;;;;-2.01;59.25;100894.97;4375829;32;33363;-55
2022/01/16 06:45:28;;;;;;;46.65;24.17;;;;;;;-2.13;59.20;100894.00;4383418;32;33576;-56
2022/01/16 06:47:56;;;;;;;47.47;23.77;;;;;;;-2.12;59.21;100906.09;4373652;32;34555;-56
2022/01/16 06:50:23;;;;;;;38.15;20.17;;;;;;;-2.08;59.25;100895.75;4386384;32;34932;-53
2022/01/16 06:52:50;;;;;;;38.60;20.40;;;;;;;-2.02;58.90;100889.78;4387845;32;33240;-53
2022/01/16 06:55:18;;;;;;;56.37;26.92;;;;;;;-1.99;58.79;100879.47;4386263;32;34880;-53
2022/01/16 06:57:46;;;;;;;49.65;26.02;;;;;;;-2.14;60.09;100893.12;4384897;32;34135;-54
2022/01/16 07:00:13;;;;;;;46.15;22.83;;;;;;;-2.01;59.74;100897.56;4381935;32;33946;-53
2022/01/16 07:02:41;;;;;;;34.33;19.20;;;;;;;-1.95;59.51;100888.97;4372506;32;33273;-53
2022/01/16 07:05:09;;;;;;;38.45;19.60;;;;;;;-1.96;59.09;100888.94;4375515;32;33414;-53
2022/01/16 07:07:36;;;;;;;37.83;20.17;;;;;;;-1.94;58.66;100887.25;4376473;32;34076;-54
2022/01/16 07:10:05;;;;;;;35.25;20.35;;;;;;;-2.13;58.98;100887.13;4372203;32;34039;-54
2022/01/16 07:12:32;;;;;;;40.00;20.90;;;;;;;-1.94;58.58;100882.91;4378182;32;33344;-53
2022/01/16 07:15:00;;;;;;;43.90;22.90;;;;;;;-1.92;63.03;100894.19;4384875;32;34190;-53
2022/01/16 07:17:28;;;;;;;42.15;21.95;;;;;;;-2.02;61.05;100889.78;4380394;32;34021;-57
2022/01/16 07:19:55;;;;;;;50.20;25.33;;;;;;;-1.95;60.38;100891.56;4379055;32;33730;-54
2022/01/16 07:22:23;;;;;;;50.53;26.73;;;;;;;-1.88;60.07;100903.69;4377833;32;33012;-54
2022/01/16 07:24:54;;;;;;;63.03;30.08;;;;;;;-1.75;59.47;100908.94;4376288;32;33837;-54
2022/01/16 07:27:21;;;;;;;74.87;33.72;;;;;;;-1.82;59.74;100910.66;4378805;32;35311;-54
2022/01/16 07:29:48;;;;;;;62.70;31.30;;;;;;;-1.70;60.33;100918.50;4375184;32;33989;-53
2022/01/16 07:32:16;;;;;;;59.45;29.58;;;;;;;-0.97;75.07;100914.53;4374541;32;33463;-54
2022/01/16 07:34:44;;;;;;;56.35;29.02;;;;;;;-1.11;72.12;100905.84;4377049;32;33863;-53
2022/01/16 07:37:11;;;;;;;;;;;;;;;-1.17;70.09;100904.09;4389306;32;34068;-54
2022/01/16 07:39:39;;;;;;;56.45;28.00;;;;;;;-1.10;67.19;100900.66;4380144;32;33366;-54
2022/01/16 07:42:07;;;;;;;57.20;29.87;;;;;;;-1.10;65.31;100900.66;4374172;32;33618;-53
2022/01/16 07:44:35;;;;;;;55.65;29.90;;;;;;;-1.31;62.99;100908.34;4376265;32;33746;-53
2022/01/16 07:47:03;;;;;;;58.00;30.75;;;;;;;-1.16;62.19;100913.59;4374500;32;34624;-53
2022/01/16 07:49:31;;;;;;;57.70;30.30;;;;;;;-1.21;61.75;100913.56;4373707;32;34682;-53
2022/01/16 07:51:58;;;;;;;61.40;31.73;;;;;;;-1.15;61.39;100909.28;4374049;32;33546;-53
2022/01/16 07:54:26;;;;;;;61.03;32.55;;;;;;;-1.20;60.90;100914.47;4376787;32;33972;-54
2022/01/16 07:56:53;;;;;;;55.97;30.70;;;;;;;-1.04;60.80;100915.37;4377955;32;35556;-54
2022/01/16 07:59:21;;;;;;;61.20;31.92;;;;;;;-1.17;60.90;100906.69;4379489;32;34922;-53
2022/01/16 08:01:48;;;;;;;62.13;37.38;;;;;;;-1.23;60.93;100904.06;4380919;32;34567;-53
2022/01/16 08:04:16;;;;;;;59.03;29.63;;;;;;;-1.23;61.20;100898.88;4379198;32;33879;-53
2022/01/16 08:06:44;;;;;;;53.15;29.30;;;;;;;-1.25;61.28;100900.59;4379062;32;33882;-53
2022/01/16 08:09:11;;;;;;;52.90;28.70;;;;;;;-1.24;61.23;100895.44;4375321;32;34240;-53
2022/01/16 08:11:39;;;;;;;52.58;28.87;;;;;;;-0.99;62.27;100887.72;4380709;32;33121;-53
2022/01/16 08:14:25;;;;;;;53.42;26.92;;;;;;;-1.20;61.86;100878.16;4377716;32;35134;-54
2022/01/16 08:16:56;;;;;;;58.08;28.15;;;;;;;-1.17;61.78;100877.31;4373570;32;34200;-57
2022/01/16 08:19:24;;;;;;;51.00;27.15;;;;;;;-0.93;61.10;100877.41;4373230;32;34289;-53
2022/01/16 08:21:51;;;;;;;51.42;27.73;;;;;;;-0.98;60.88;100879.09;4373822;32;33123;-54
2022/01/16 08:24:22;;;;;;;57.40;27.85;;;;;;;-0.77;60.64;100883.47;4374360;32;34423;-53
2022/01/16 08:26:51;;;;;;;54.53;28.65;;;;;;;-0.90;60.83;100879.97;4373274;32;36417;-54
2022/01/16 08:29:18;;;;;;;51.20;27.65;;;;;;;-0.93;61.11;100880.00;4373588;32;33599;-54
2022/01/16 08:31:46;;;;;;;52.85;28.27;;;;;;;-1.10;61.71;100872.16;4373343;32;33293;-54
2022/01/16 08:34:14;;;;;;;54.00;28.77;;;;;;;-0.82;61.21;100872.22;4380665;32;33425;-54
2022/01/16 08:36:41;;;;;;;57.38;30.85;;;;;;;-1.04;61.73;100869.56;4382239;32;34614;-53
2022/01/16 08:39:09;;;;;;;55.70;32.75;;;;;;;-0.88;61.37;100859.25;4377237;32;33117;-53
2022/01/16 08:41:37;;;;;;;57.45;29.98;;;;;;;-0.49;60.01;100847.19;4378581;32;33574;-54
2022/01/16 08:44:06;;;;;;;55.65;29.42;;;;;;;-0.74;60.87;100846.31;4373792;32;33713;-54
2022/01/16 08:46:37;;;;;;;55.10;29.48;;;;;;;-0.79;61.72;100838.53;4380961;32;34628;-54
2022/01/16 08:49:05;;;;;;;57.13;30.58;;;;;;;-0.69;61.58;100839.41;4362313;32;33842;-54
2022/01/16 08:51:32;;;;;;;60.60;29.95;;;;;;;-0.71;61.76;100836.81;4374719;32;34391;-53
2022/01/16 08:54:00;;;;;;;59.13;31.02;;;;;;;-0.82;62.27;100830.72;4373345;32;34006;-54
2022/01/16 08:56:27;;;;;;;55.45;31.00;;;;;;;-0.62;62.23;100831.62;4378843;32;34424;-53
2022/01/16 08:58:55;;;;;;;54.45;29.83;;;;;;;-0.17;61.06;100825.59;4391204;32;33881;-53
2022/01/16 09:01:22;;;;;;;67.87;34.92;;;;;;;-0.26;61.62;100823.84;4393558;32;33672;-53
2022/01/16 09:03:55;;;;;;;74.07;37.40;;;;;;;-0.73;63.32;100827.31;4402099;32;34236;-54
2022/01/16 09:06:22;;;;;;;;;;;;;;;-0.51;62.93;100820.37;4402485;32;34571;-53
2022/01/16 09:08:49;;;;;;;61.28;32.30;;;;;;;-0.55;63.15;100821.25;4394570;32;33878;-54
2022/01/16 09:11:17;;;;;;;57.00;31.15;;;;;;;-0.26;62.52;100816.06;4383211;32;32656;-53
2022/01/16 09:13:45;;;;;;;57.60;31.05;;;;;;;-0.22;62.50;100817.78;4388550;32;33508;-53
2022/01/16 09:16:12;;;;;;;58.25;32.35;;;;;;;-0.33;62.44;100823.00;4384941;32;34086;-53
2022/01/16 09:18:40;;;;;;;53.95;30.70;;;;;;;-0.22;62.35;100821.22;4380746;32;34603;-53
2022/01/16 09:21:07;;;;;;;56.83;29.98;;;;;;;-0.08;62.26;100817.75;4366310;32;33177;-54
2022/01/16 09:23:35;;;;;;;54.60;31.10;;;;;;;-0.05;61.70;100822.97;4373239;32;33517;-54
2022/01/16 09:26:03;;;;;;;54.38;28.77;;;;;;;0.10;60.94;100824.66;4384409;32;35133;-54
2022/01/16 09:28:30;;;;;;;53.15;30.67;;;;;;;-0.13;61.62;100822.09;4388166;32;35075;-53
2022/01/16 09:30:58;;;;;;;55.03;31.98;;;;;;;0.11;61.29;100829.84;4388097;32;33957;-54
2022/01/16 09:33:26;;;;;;;;;;;;;;;0.27;61.09;100819.41;4376657;32;34396;-53
2022/01/16 09:35:54;;;;;;;56.08;29.52;;;;;;;0.50;60.15;100811.53;4373180;32;34414;-54
2022/01/16 09:38:22;;;;;;;56.25;30.02;;;;;;;0.37;61.22;100805.53;4387815;32;34158;-56
2022/01/16 09:40:52;;;;;;;58.40;30.02;;;;;;;0.56;60.77;100802.00;4388043;32;34353;-54
2022/01/16 09:43:20;;;;;;;54.95;35.45;;;;;;;0.47;61.17;100793.37;4372861;32;34658;-55
2022/01/16 09:45:48;;;;;;;56.58;32.42;;;;;;;0.50;61.25;100796.81;4387760;32;34594;-54
2022/01/16 09:48:16;;;;;;;54.15;28.23;;;;;;;0.77;60.62;100792.34;4387660;32;33699;-53
2022/01/16 09:50:44;;;;;;;54.15;30.10;;;;;;;0.66;60.49;100791.53;4384575;32;33762;-54
2022/01/16 09:53:14;;;;;;;50.12;29.95;;;;;;;0.85;59.53;100795.75;4380422;32;34389;-53
2022/01/16 09:55:42;;;;;;;52.33;32.90;;;;;;;0.73;59.95;100791.50;4362746;32;34942;-53
2022/01/16 09:58:10;;;;;;;;;;;;;;;0.84;60.12;100790.59;4385159;32;34826;-54
2022/01/16 10:00:37;;;;;;;54.05;28.70;;;;;;;0.95;60.33;100783.56;4383355;32;32997;-54
2022/01/16 10:03:05;;;;;;;56.17;33.10;;;;;;;0.91;60.45;100781.88;4380789;32;33940;-53
2022/01/16 10:05:35;;;;;;;55.30;33.05;;;;;;;1.09;60.23;100780.91;4372980;32;35110;-53
2022/01/16 10:08:08;;;;;;;57.65;30.55;;;;;;;1.12;59.77;100775.66;4389454;32;34385;-53
2022/01/16 10:10:38;;;;;;;53.60;32.33;;;;;;;1.10;59.96;100774.81;4402032;32;33568;-53
2022/01/16 10:13:23;;;;;;;56.83;35.25;;;;;;;1.02;60.05;100767.06;4377496;32;33488;-53
2022/01/16 10:15:55;;;;;;;57.97;32.95;;;;;;;0.99;60.36;100761.91;4372658;32;35316;-53
2022/01/16 10:18:35;;;;;;;53.58;31.27;;;;;;;1.04;60.36;100756.66;4373004;32;33669;-54
2022/01/16 10:21:03;;;;;;;57.88;34.33;;;;;;;1.21;59.66;100754.78;4372672;32;33705;-54
2022/01/16 10:23:30;;;;;;;;;;;;;;;1.06;60.19;100757.50;4372781;32;34280;-53
2022/01/16 10:25:57;;;;;;;62.80;36.42;;;;;;;1.37;59.56;100758.97;4373289;32;34337;-53
2022/01/16 10:28:25;;;;;;;;;;;;;;;1.13;60.21;100747.03;4374152;32;35027;-53
2022/01/16 10:30:55;;;;;;;62.30;33.78;;;;;;;1.16;59.78;100749.63;4374783;32;34477;-53
2022/01/16 10:33:26;;;;;;;72.30;38.42;;;;;;;1.53;58.97;100744.12;4374500;32;33512;-53
2022/01/16 10:35:55;;;;;;;71.90;41.15;;;;;;;1.58;58.90;100734.50;4372522;32;34535;-53
2022/01/16 10:38:26;;;;;;;67.53;38.50;;;;;;;1.54;58.49;100747.56;4372432;32;33721;-54
2022/01/16 10:40:55;;;;;;;71.80;42.92;;;;;;;1.65;57.94;100743.13;4380630;32;33831;-53
2022/01/16 10:43:41;;;;;;;71.47;38.22;;;;;;;1.83;57.88;100739.47;4383696;32;33439;-53
2022/01/16 10:46:10;;;;;;;71.85;44.90;;;;;;;1.94;57.81;100734.16;4387509;32;34543;-53
2022/01/16 10:49:19;;;;;;;71.80;39.95;;;;;;;1.74;58.12;100731.75;4387667;32;33657;-54
2022/01/16 10:52:05;;;;;;;67.68;36.25;;;;;;;1.59;58.55;100724.97;4386602;32;33397;-53
2022/01/16 10:54:35;;;;;;;65.90;37.50;;;;;;;1.90;57.93;100735.94;4372671;32;33890;-54
2022/01/16 10:57:17;;;;;;;60.20;40.60;;;;;;;1.69;58.72;100736.16;4372433;32;33723;-53
2022/01/16 10:59:45;;;;;;;68.55;40.05;;;;;;;1.86;58.44;100738.56;4372356;32;33649;-53
2022/01/16 11:02:13;;;;;;;58.75;37.15;;;;;;;1.82;58.36;100732.53;4373181;32;33437;-53
2022/01/16 11:04:41;;;;;;;62.78;38.20;;;;;;;2.10;57.84;100730.50;4375036;32;34421;-53
2022/01/16 11:07:10;;;;;;;66.93;39.63;;;;;;;2.08;57.97;100724.44;4372131;32;33728;-54
2022/01/16 11:09:38;;;;;;;67.12;40.17;;;;;;;2.22;57.71;100726.00;4377228;32;34375;-54
2022/01/16 11:12:06;;;;;;;65.82;40.40;;;;;;;2.27;57.45;100724.19;4378617;32;34317;-54
2022/01/16 11:14:33;;;;;;;;;;;;;;;2.19;57.67;100711.28;4378776;32;33729;-53
2022/01/16 11:17:00;;;;;;;67.05;35.25;;;;;;;2.38;57.35;100719.72;4370419;32;35455;-53
2022/01/16 11:19:34;;;;;;;64.72;39.78;;;;;;;2.51;56.82;100716.06;4387035;32;33659;-53
2022/01/16 11:22:08;;;;;;;64.35;39.75;;;;;;;2.34;57.47;100708.47;4366151;32;33854;-53
2022/01/16 11:25:00;;;;;;;63.85;36.35;;;;;;;2.01;58.17;100707.13;4378483;32;34845;-53
2022/01/16 11:27:38;;;;;;;61.25;37.70;;;;;;;2.38;57.47;100711.87;4381763;32;35206;-53
2022/01/16 11:30:06;;;;;;;63.95;38.53;;;;;;;2.38;57.29;100698.84;4391998;32;34141;-54
2022/01/16 11:32:33;;;;;;;58.35;37.72;;;;;;;2.15;57.99;100692.22;4403873;32;33159;-53
2022/01/16 11:35:01;;;;;;;66.43;38.45;;;;;;;2.27;58.08;100679.88;4394044;32;34290;-53
2022/01/16 11:37:29;;;;;;;63.65;39.20;;;;;;;2.47;57.39;100672.66;4384125;32;34133;-54
2022/01/16 11:40:31;;;;;;;64.73;38.67;;;;;;;2.30;58.30;100665.06;4373718;32;35158;-53
2022/01/16 11:43:15;;;;;;;62.00;38.42;;;;;;;2.68;57.33;100675.84;4383515;32;33099;-53
2022/01/16 11:45:51;;;;;;;56.92;37.55;;;;;;;2.60;57.73;100669.88;4388550;32;34615;-53
2022/01/16 11:48:35;;;;;;;63.13;37.60;;;;;;;2.74;57.26;100662.72;4385507;32;34140;-53
2022/01/16 11:51:48;;;;;;;56.85;35.40;;;;;;;2.60;57.91;100660.31;4373955;32;33134;-53
2022/01/16 11:54:34;;;;;;;59.20;35.83;;;;;;;3.03;56.96;100664.84;4375403;32;33153;-53
2022/01/16 11:57:24;;;;;;;56.90;35.83;;;;;;;2.63;58.04;100668.09;4374570;32;33692;-54
2022/01/16 11:59:54;;;;;;;56.13;36.20;;;;;;;2.67;57.82;100661.09;4365126;32;34499;-54
2022/01/16 12:02:24;;;;;;;57.83;35.88;;;;;;;2.81;57.25;100653.91;4374231;32;34285;-54
2022/01/16 12:04:54;;;;;;;55.30;35.65;;;;;;;2.91;57.06;100652.03;4373864;32;33877;-54
2022/01/16 12:07:21;;;;;;;55.53;35.72;;;;;;;2.75;57.48;100651.38;4387662;32;34872;-54